sensor_id;sensor_type;location;lat;lon;timestamp;temperature;humidity
16827;DHT22;8530;49.540;8.576;2023-07-28T00:01:13;18.60;99.90
16827;DHT22;8530;49.540;8.576;2023-07-28T00:03:39;18.60;99.90
16827;DHT22;8530;49.540;8.576;2023-07-28T00:06:06;18.60;99.90
16827;DHT22;8530;49.540;8.576;2023-07-28T00:08:33;18.60;99.90
16827;DHT22;8530;49.540;8.576;2023-07-28T00:10:59;18.60;99.90
16827;DHT22;8530;49.540;8.576;2023-07-28T00:13:26;18.60;99.90
16827;DHT22;8530;49.540;8.576;2023-07-28T00:15:54;18.70;99.90
16827;DHT22;8530;49.540;8.576;2023-07-28T00:18:21;18.70;99.90
16827;DHT22;8530;49.540;8.576;2023-07-28T00:20:47;18.70;99.90
16827;DHT22;8530;49.540;8.576;2023-07-28T00:23:14;18.70;99.90
16827;DHT22;8530;49.540;8.576;2023-07-28T00:25:41;18.70;99.90
16827;DHT22;8530;49.540;8.576;2023-07-28T00:28:07;18.80;99.90
16827;DHT22;8530;49.540;8.576;2023-07-28T00:30:34;18.80;99.90
16827;DHT22;8530;49.540;8.576;2023-07-28T00:33:02;18.80;99.90
16827;DHT22;8530;49.540;8.576;2023-07-28T00:35:29;18.80;99.90
16827;DHT22;8530;49.540;8.576;2023-07-28T00:37:56;18.80;99.90
16827;DHT22;8530;49.540;8.576;2023-07-28T00:40:23;18.80;99.90
16827;DHT22;8530;49.540;8.576;2023-07-28T00:42:50;18.80;99.90
16827;DHT22;8530;49.540;8.576;2023-07-28T00:45:17;18.80;99.90
16827;DHT22;8530;49.540;8.576;2023-07-28T00:47:45;18.80;99.90
16827;DHT22;8530;49.540;8.576;2023-07-28T00:50:13;18.80;99.90
16827;DHT22;8530;49.540;8.576;2023-07-28T00:52:40;18.80;99.90
16827;DHT22;8530;49.540;8.576;2023-07-28T00:55:08;18.80;99.90
16827;DHT22;8530;49.540;8.576;2023-07-28T00:57:34;18.80;99.90
16827;DHT22;8530;49.540;8.576;2023-07-28T01:00:01;18.80;99.90
16827;DHT22;8530;49.540;8.576;2023-07-28T01:02:28;18.80;99.90
16827;DHT22;8530;49.540;8.576;2023-07-28T01:04:55;18.80;99.90
16827;DHT22;8530;49.540;8.576;2023-07-28T01:07:30;18.80;99.90
16827;DHT22;8530;49.540;8.576;2023-07-28T01:10:07;18.80;99.90
16827;DHT22;8530;49.540;8.576;2023-07-28T01:12:34;18.80;99.90
16827;DHT22;8530;49.540;8.576;2023-07-28T01:15:01;18.80;99.90
16827;DHT22;8530;49.540;8.576;2023-07-28T01:17:28;18.80;99.90
16827;DHT22;8530;49.540;8.576;2023-07-28T01:19:55;18.80;99.90
16827;DHT22;8530;49.540;8.576;2023-07-28T01:25:26;18.90;99.90
16827;DHT22;8530;49.540;8.576;2023-07-28T01:27:56;18.90;99.90
16827;DHT22;8530;49.540;8.576;2023-07-28T01:30:24;18.90;99.90
16827;DHT22;8530;49.540;8.576;2023-07-28T01:32:54;18.90;99.90
16827;DHT22;8530;49.540;8.576;2023-07-28T01:35:21;18.90;99.90
16827;DHT22;8530;49.540;8.576;2023-07-28T01:37:47;18.90;99.90
16827;DHT22;8530;49.540;8.576;2023-07-28T01:40:16;18.90;99.90
16827;DHT22;8530;49.540;8.576;2023-07-28T01:42:43;18.80;99.90
16827;DHT22;8530;49.540;8.576;2023-07-28T01:45:11;18.80;99.90
16827;DHT22;8530;49.540;8.576;2023-07-28T01:47:38;18.80;99.90
16827;DHT22;8530;49.540;8.576;2023-07-28T01:50:05;18.80;99.90
16827;DHT22;8530;49.540;8.576;2023-07-28T01:52:32;18.80;99.90
16827;DHT22;8530;49.540;8.576;2023-07-28T01:54:59;18.70;99.90
16827;DHT22;8530;49.540;8.576;2023-07-28T01:57:26;18.70;99.90
16827;DHT22;8530;49.540;8.576;2023-07-28T01:59:53;18.70;99.90
16827;DHT22;8530;49.540;8.576;2023-07-28T02:02:21;18.70;99.90
16827;DHT22;8530;49.540;8.576;2023-07-28T02:04:48;18.70;99.90
16827;DHT22;8530;49.540;8.576;2023-07-28T02:07:15;18.70;99.90
16827;DHT22;8530;49.540;8.576;2023-07-28T02:09:42;18.70;99.90
16827;DHT22;8530;49.540;8.576;2023-07-28T02:12:08;18.70;99.90
16827;DHT22;8530;49.540;8.576;2023-07-28T02:14:35;18.60;99.90
16827;DHT22;8530;49.540;8.576;2023-07-28T02:17:02;18.60;99.90
16827;DHT22;8530;49.540;8.576;2023-07-28T02:19:30;18.70;99.90
16827;DHT22;8530;49.540;8.576;2023-07-28T02:21:57;18.60;99.90
16827;DHT22;8530;49.540;8.576;2023-07-28T02:24:23;18.60;99.90
16827;DHT22;8530;49.540;8.576;2023-07-28T02:26:50;18.60;99.90
16827;DHT22;8530;49.540;8.576;2023-07-28T02:29:17;18.60;99.90
16827;DHT22;8530;49.540;8.576;2023-07-28T02:31:43;18.60;99.90
16827;DHT22;8530;49.540;8.576;2023-07-28T02:34:10;18.60;99.90
16827;DHT22;8530;49.540;8.576;2023-07-28T02:36:38;18.60;99.90
16827;DHT22;8530;49.540;8.576;2023-07-28T02:39:04;18.60;99.90
16827;DHT22;8530;49.540;8.576;2023-07-28T02:41:31;18.60;99.90
16827;DHT22;8530;49.540;8.576;2023-07-28T02:43:58;18.60;99.90
16827;DHT22;8530;49.540;8.576;2023-07-28T02:46:24;18.60;99.90
16827;DHT22;8530;49.540;8.576;2023-07-28T02:48:51;18.60;99.90
16827;DHT22;8530;49.540;8.576;2023-07-28T02:51:18;18.50;99.90
16827;DHT22;8530;49.540;8.576;2023-07-28T02:53:46;18.50;99.90
16827;DHT22;8530;49.540;8.576;2023-07-28T02:56:13;18.50;99.90
16827;DHT22;8530;49.540;8.576;2023-07-28T02:58:39;18.50;99.90
16827;DHT22;8530;49.540;8.576;2023-07-28T03:01:06;18.50;99.90
16827;DHT22;8530;49.540;8.576;2023-07-28T03:03:33;18.50;99.90
16827;DHT22;8530;49.540;8.576;2023-07-28T03:05:59;18.50;99.90
16827;DHT22;8530;49.540;8.576;2023-07-28T03:08:26;18.50;99.90
16827;DHT22;8530;49.540;8.576;2023-07-28T03:10:57;18.50;99.90
16827;DHT22;8530;49.540;8.576;2023-07-28T03:13:24;18.50;99.90
16827;DHT22;8530;49.540;8.576;2023-07-28T03:15:51;18.50;99.90
16827;DHT22;8530;49.540;8.576;2023-07-28T03:18:17;18.50;99.90
16827;DHT22;8530;49.540;8.576;2023-07-28T03:20:45;18.50;99.90
16827;DHT22;8530;49.540;8.576;2023-07-28T03:23:11;18.50;99.90
16827;DHT22;8530;49.540;8.576;2023-07-28T03:25:38;18.50;99.90
16827;DHT22;8530;49.540;8.576;2023-07-28T03:28:06;18.50;99.90
16827;DHT22;8530;49.540;8.576;2023-07-28T03:30:33;18.50;99.90
16827;DHT22;8530;49.540;8.576;2023-07-28T03:32:59;18.50;99.90
16827;DHT22;8530;49.540;8.576;2023-07-28T03:35:26;18.50;99.90
16827;DHT22;8530;49.540;8.576;2023-07-28T03:37:53;18.50;99.90
16827;DHT22;8530;49.540;8.576;2023-07-28T03:40:20;18.50;99.90
16827;DHT22;8530;49.540;8.576;2023-07-28T03:42:46;18.50;99.90
16827;DHT22;8530;49.540;8.576;2023-07-28T03:45:15;18.50;99.90
16827;DHT22;8530;49.540;8.576;2023-07-28T03:47:42;18.50;99.90
16827;DHT22;8530;49.540;8.576;2023-07-28T03:50:09;18.50;99.90
16827;DHT22;8530;49.540;8.576;2023-07-28T03:52:35;18.50;99.90
16827;DHT22;8530;49.540;8.576;2023-07-28T03:55:03;18.50;99.90
16827;DHT22;8530;49.540;8.576;2023-07-28T03:57:29;18.50;99.90
16827;DHT22;8530;49.540;8.576;2023-07-28T03:59:56;18.50;99.90
16827;DHT22;8530;49.540;8.576;2023-07-28T04:02:24;18.50;99.90
16827;DHT22;8530;49.540;8.576;2023-07-28T04:04:53;18.60;99.90
16827;DHT22;8530;49.540;8.576;2023-07-28T04:07:20;18.60;99.90
16827;DHT22;8530;49.540;8.576;2023-07-28T04:09:47;18.60;99.90
16827;DHT22;8530;49.540;8.576;2023-07-28T04:12:13;18.60;99.90
16827;DHT22;8530;49.540;8.576;2023-07-28T04:14:40;18.60;99.90
16827;DHT22;8530;49.540;8.576;2023-07-28T04:17:07;18.60;99.90
16827;DHT22;8530;49.540;8.576;2023-07-28T04:19:35;18.60;99.90
16827;DHT22;8530;49.540;8.576;2023-07-28T04:22:02;18.60;99.90
16827;DHT22;8530;49.540;8.576;2023-07-28T04:24:29;18.60;99.90
16827;DHT22;8530;49.540;8.576;2023-07-28T04:26:56;18.60;99.90
16827;DHT22;8530;49.540;8.576;2023-07-28T04:29:23;18.60;99.90
16827;DHT22;8530;49.540;8.576;2023-07-28T04:31:52;18.60;99.90
16827;DHT22;8530;49.540;8.576;2023-07-28T04:34:19;18.60;99.90
16827;DHT22;8530;49.540;8.576;2023-07-28T04:36:47;18.60;99.90
16827;DHT22;8530;49.540;8.576;2023-07-28T04:39:14;18.60;99.90
16827;DHT22;8530;49.540;8.576;2023-07-28T04:41:41;18.60;99.90
16827;DHT22;8530;49.540;8.576;2023-07-28T04:44:07;18.70;99.90
16827;DHT22;8530;49.540;8.576;2023-07-28T04:46:34;18.70;99.90
16827;DHT22;8530;49.540;8.576;2023-07-28T04:49:01;18.70;99.90
16827;DHT22;8530;49.540;8.576;2023-07-28T04:51:28;18.70;99.90
16827;DHT22;8530;49.540;8.576;2023-07-28T04:53:56;18.70;99.90
16827;DHT22;8530;49.540;8.576;2023-07-28T04:56:23;18.70;99.90
16827;DHT22;8530;49.540;8.576;2023-07-28T04:58:50;18.70;99.90
16827;DHT22;8530;49.540;8.576;2023-07-28T05:01:16;18.70;99.90
16827;DHT22;8530;49.540;8.576;2023-07-28T05:03:43;18.70;99.90
16827;DHT22;8530;49.540;8.576;2023-07-28T05:06:10;18.70;99.90
16827;DHT22;8530;49.540;8.576;2023-07-28T05:08:36;18.70;99.90
16827;DHT22;8530;49.540;8.576;2023-07-28T05:11:05;18.80;99.90
16827;DHT22;8530;49.540;8.576;2023-07-28T05:13:31;18.80;99.90
16827;DHT22;8530;49.540;8.576;2023-07-28T05:15:58;18.80;99.90
16827;DHT22;8530;49.540;8.576;2023-07-28T05:18:25;18.90;99.90
16827;DHT22;8530;49.540;8.576;2023-07-28T05:20:52;18.90;99.90
16827;DHT22;8530;49.540;8.576;2023-07-28T05:23:19;18.90;99.90
16827;DHT22;8530;49.540;8.576;2023-07-28T05:25:46;18.90;99.90
16827;DHT22;8530;49.540;8.576;2023-07-28T05:28:14;19.00;99.90
16827;DHT22;8530;49.540;8.576;2023-07-28T05:30:41;19.00;99.90
16827;DHT22;8530;49.540;8.576;2023-07-28T05:33:07;19.10;99.90
16827;DHT22;8530;49.540;8.576;2023-07-28T05:35:34;19.10;99.90
16827;DHT22;8530;49.540;8.576;2023-07-28T05:38:01;19.20;99.90
16827;DHT22;8530;49.540;8.576;2023-07-28T05:40:27;19.20;99.90
16827;DHT22;8530;49.540;8.576;2023-07-28T05:42:54;19.30;99.90
16827;DHT22;8530;49.540;8.576;2023-07-28T05:45:22;19.30;99.90
16827;DHT22;8530;49.540;8.576;2023-07-28T05:47:49;19.40;99.90
16827;DHT22;8530;49.540;8.576;2023-07-28T05:50:15;19.40;99.90
16827;DHT22;8530;49.540;8.576;2023-07-28T05:52:42;19.50;99.90
16827;DHT22;8530;49.540;8.576;2023-07-28T05:55:09;19.50;99.90
16827;DHT22;8530;49.540;8.576;2023-07-28T05:57:36;19.60;99.90
16827;DHT22;8530;49.540;8.576;2023-07-28T06:00:04;19.70;99.90
16827;DHT22;8530;49.540;8.576;2023-07-28T06:02:36;19.80;99.90
16827;DHT22;8530;49.540;8.576;2023-07-28T06:05:03;19.80;99.90
16827;DHT22;8530;49.540;8.576;2023-07-28T06:07:30;19.90;99.90
16827;DHT22;8530;49.540;8.576;2023-07-28T06:09:57;19.90;99.90
16827;DHT22;8530;49.540;8.576;2023-07-28T06:12:24;20.00;99.90
16827;DHT22;8530;49.540;8.576;2023-07-28T06:14:51;20.20;99.90
16827;DHT22;8530;49.540;8.576;2023-07-28T06:17:17;20.30;99.90
16827;DHT22;8530;49.540;8.576;2023-07-28T06:19:45;20.30;99.90
16827;DHT22;8530;49.540;8.576;2023-07-28T06:22:12;20.40;99.90
16827;DHT22;8530;49.540;8.576;2023-07-28T06:24:39;20.40;99.90
16827;DHT22;8530;49.540;8.576;2023-07-28T06:27:06;20.40;99.90
16827;DHT22;8530;49.540;8.576;2023-07-28T06:29:34;20.40;99.90
16827;DHT22;8530;49.540;8.576;2023-07-28T06:32:01;20.30;99.90
16827;DHT22;8530;49.540;8.576;2023-07-28T06:34:27;20.30;99.90
16827;DHT22;8530;49.540;8.576;2023-07-28T06:36:56;20.40;99.90
16827;DHT22;8530;49.540;8.576;2023-07-28T06:39:23;20.30;99.90
16827;DHT22;8530;49.540;8.576;2023-07-28T06:41:50;20.40;99.90
16827;DHT22;8530;49.540;8.576;2023-07-28T06:44:16;20.40;99.90
16827;DHT22;8530;49.540;8.576;2023-07-28T06:46:43;20.40;99.90
16827;DHT22;8530;49.540;8.576;2023-07-28T06:49:10;20.40;99.90
16827;DHT22;8530;49.540;8.576;2023-07-28T06:51:36;20.30;99.90
16827;DHT22;8530;49.540;8.576;2023-07-28T06:54:05;20.40;99.90
16827;DHT22;8530;49.540;8.576;2023-07-28T06:56:35;20.40;99.90
16827;DHT22;8530;49.540;8.576;2023-07-28T06:59:01;20.40;99.90
16827;DHT22;8530;49.540;8.576;2023-07-28T07:01:28;20.30;99.90
16827;DHT22;8530;49.540;8.576;2023-07-28T07:03:55;20.30;99.90
16827;DHT22;8530;49.540;8.576;2023-07-28T07:06:22;20.30;99.90
16827;DHT22;8530;49.540;8.576;2023-07-28T07:08:48;20.30;99.90
16827;DHT22;8530;49.540;8.576;2023-07-28T07:11:16;20.40;99.90
16827;DHT22;8530;49.540;8.576;2023-07-28T07:13:43;20.40;99.90
16827;DHT22;8530;49.540;8.576;2023-07-28T07:16:13;20.40;99.90
16827;DHT22;8530;49.540;8.576;2023-07-28T07:18:42;20.50;99.90
16827;DHT22;8530;49.540;8.576;2023-07-28T07:21:09;20.50;99.90
16827;DHT22;8530;49.540;8.576;2023-07-28T07:23:35;20.50;99.90
16827;DHT22;8530;49.540;8.576;2023-07-28T07:26:02;20.60;99.90
16827;DHT22;8530;49.540;8.576;2023-07-28T07:28:31;20.70;99.90
16827;DHT22;8530;49.540;8.576;2023-07-28T07:30:58;20.80;99.90
16827;DHT22;8530;49.540;8.576;2023-07-28T07:33:24;21.00;99.90
16827;DHT22;8530;49.540;8.576;2023-07-28T07:35:51;21.00;99.90
16827;DHT22;8530;49.540;8.576;2023-07-28T07:38:18;21.10;99.90
16827;DHT22;8530;49.540;8.576;2023-07-28T07:40:46;21.30;99.90
16827;DHT22;8530;49.540;8.576;2023-07-28T07:43:13;21.50;99.90
16827;DHT22;8530;49.540;8.576;2023-07-28T07:45:46;21.60;99.90
16827;DHT22;8530;49.540;8.576;2023-07-28T07:48:15;21.80;99.90
16827;DHT22;8530;49.540;8.576;2023-07-28T07:50:42;22.00;99.90
16827;DHT22;8530;49.540;8.576;2023-07-28T07:53:09;22.10;99.90
16827;DHT22;8530;49.540;8.576;2023-07-28T07:55:35;22.10;99.90
16827;DHT22;8530;49.540;8.576;2023-07-28T07:58:02;22.30;99.90
16827;DHT22;8530;49.540;8.576;2023-07-28T08:00:30;22.40;99.90
16827;DHT22;8530;49.540;8.576;2023-07-28T08:02:58;22.50;99.90
16827;DHT22;8530;49.540;8.576;2023-07-28T08:05:24;22.70;99.90
16827;DHT22;8530;49.540;8.576;2023-07-28T08:07:51;22.90;99.90
16827;DHT22;8530;49.540;8.576;2023-07-28T08:10:18;23.10;99.90
16827;DHT22;8530;49.540;8.576;2023-07-28T08:12:44;23.30;99.90
16827;DHT22;8530;49.540;8.576;2023-07-28T08:15:12;23.60;99.90
16827;DHT22;8530;49.540;8.576;2023-07-28T08:17:39;24.00;99.90
16827;DHT22;8530;49.540;8.576;2023-07-28T08:20:08;24.30;99.90
16827;DHT22;8530;49.540;8.576;2023-07-28T08:22:35;24.60;99.90
16827;DHT22;8530;49.540;8.576;2023-07-28T08:25:02;25.30;99.90
16827;DHT22;8530;49.540;8.576;2023-07-28T08:27:29;26.30;99.90
16827;DHT22;8530;49.540;8.576;2023-07-28T08:29:56;27.20;99.90
16827;DHT22;8530;49.540;8.576;2023-07-28T08:32:23;27.70;99.90
16827;DHT22;8530;49.540;8.576;2023-07-28T08:34:49;27.90;99.90
16827;DHT22;8530;49.540;8.576;2023-07-28T08:37:17;27.90;99.80
16827;DHT22;8530;49.540;8.576;2023-07-28T08:39:44;28.20;98.60
16827;DHT22;8530;49.540;8.576;2023-07-28T08:42:11;28.40;97.90
16827;DHT22;8530;49.540;8.576;2023-07-28T08:44:38;28.40;97.10
16827;DHT22;8530;49.540;8.576;2023-07-28T08:47:05;28.20;96.30
16827;DHT22;8530;49.540;8.576;2023-07-28T08:49:32;27.90;95.60
16827;DHT22;8530;49.540;8.576;2023-07-28T08:54:42;27.50;95.10
16827;DHT22;8530;49.540;8.576;2023-07-28T08:57:09;26.90;94.70
16827;DHT22;8530;49.540;8.576;2023-07-28T08:59:36;26.80;94.70
16827;DHT22;8530;49.540;8.576;2023-07-28T09:02:09;26.80;94.60
16827;DHT22;8530;49.540;8.576;2023-07-28T09:04:36;27.00;94.30
16827;DHT22;8530;49.540;8.576;2023-07-28T09:07:05;27.00;94.00
16827;DHT22;8530;49.540;8.576;2023-07-28T09:09:32;26.90;93.30
16827;DHT22;8530;49.540;8.576;2023-07-28T09:12:00;26.80;93.00
16827;DHT22;8530;49.540;8.576;2023-07-28T09:14:27;26.40;92.50
16827;DHT22;8530;49.540;8.576;2023-07-28T09:16:54;26.10;92.40
16827;DHT22;8530;49.540;8.576;2023-07-28T09:19:21;25.60;92.30
16827;DHT22;8530;49.540;8.576;2023-07-28T09:21:58;25.10;92.50
16827;DHT22;8530;49.540;8.576;2023-07-28T09:24:30;24.70;93.00
16827;DHT22;8530;49.540;8.576;2023-07-28T09:27:00;24.40;93.20
16827;DHT22;8530;49.540;8.576;2023-07-28T09:29:27;24.20;93.50
16827;DHT22;8530;49.540;8.576;2023-07-28T09:32:02;23.90;93.70
16827;DHT22;8530;49.540;8.576;2023-07-28T09:34:30;23.70;94.10
16827;DHT22;8530;49.540;8.576;2023-07-28T09:36:59;23.70;94.50
16827;DHT22;8530;49.540;8.576;2023-07-28T09:39:26;23.80;94.80
16827;DHT22;8530;49.540;8.576;2023-07-28T09:41:53;24.00;95.00
16827;DHT22;8530;49.540;8.576;2023-07-28T09:44:24;24.30;95.00
16827;DHT22;8530;49.540;8.576;2023-07-28T09:46:52;24.40;94.80
16827;DHT22;8530;49.540;8.576;2023-07-28T09:49:21;24.60;94.60
16827;DHT22;8530;49.540;8.576;2023-07-28T09:51:49;24.60;94.30
16827;DHT22;8530;49.540;8.576;2023-07-28T09:54:23;24.60;94.10
16827;DHT22;8530;49.540;8.576;2023-07-28T09:56:54;24.40;93.80
16827;DHT22;8530;49.540;8.576;2023-07-28T09:59:27;24.30;93.80
16827;DHT22;8530;49.540;8.576;2023-07-28T10:01:55;24.10;93.90
16827;DHT22;8530;49.540;8.576;2023-07-28T10:04:22;24.20;94.10
16827;DHT22;8530;49.540;8.576;2023-07-28T10:06:49;24.50;94.30
16827;DHT22;8530;49.540;8.576;2023-07-28T10:09:16;24.80;94.20
16827;DHT22;8530;49.540;8.576;2023-07-28T10:11:43;25.40;94.00
16827;DHT22;8530;49.540;8.576;2023-07-28T10:14:10;26.10;93.60
16827;DHT22;8530;49.540;8.576;2023-07-28T10:16:52;26.90;92.90
16827;DHT22;8530;49.540;8.576;2023-07-28T10:19:20;27.80;91.80
16827;DHT22;8530;49.540;8.576;2023-07-28T10:21:46;28.50;90.60
16827;DHT22;8530;49.540;8.576;2023-07-28T10:24:13;29.00;88.70
16827;DHT22;8530;49.540;8.576;2023-07-28T10:26:41;29.10;85.80
16827;DHT22;8530;49.540;8.576;2023-07-28T10:29:09;29.10;83.30
16827;DHT22;8530;49.540;8.576;2023-07-28T10:31:36;28.90;81.00
16827;DHT22;8530;49.540;8.576;2023-07-28T10:34:04;28.40;78.90
16827;DHT22;8530;49.540;8.576;2023-07-28T10:36:34;28.00;78.20
16827;DHT22;8530;49.540;8.576;2023-07-28T10:39:12;27.90;78.00
16827;DHT22;8530;49.540;8.576;2023-07-28T10:41:38;27.80;77.50
16827;DHT22;8530;49.540;8.576;2023-07-28T10:44:07;27.60;76.90
16827;DHT22;8530;49.540;8.576;2023-07-28T10:46:35;27.40;76.00
16827;DHT22;8530;49.540;8.576;2023-07-28T10:49:05;27.20;75.40
16827;DHT22;8530;49.540;8.576;2023-07-28T10:51:35;27.10;75.00
16827;DHT22;8530;49.540;8.576;2023-07-28T10:54:03;27.20;75.00
16827;DHT22;8530;49.540;8.576;2023-07-28T10:56:32;27.30;74.60
16827;DHT22;8530;49.540;8.576;2023-07-28T10:58:59;27.50;73.80
16827;DHT22;8530;49.540;8.576;2023-07-28T11:01:32;27.70;73.10
16827;DHT22;8530;49.540;8.576;2023-07-28T11:04:07;28.00;72.10
16827;DHT22;8530;49.540;8.576;2023-07-28T11:06:35;28.10;71.10
16827;DHT22;8530;49.540;8.576;2023-07-28T11:09:02;28.10;70.20
16827;DHT22;8530;49.540;8.576;2023-07-28T11:11:31;28.20;69.50
16827;DHT22;8530;49.540;8.576;2023-07-28T11:13:58;28.30;68.60
16827;DHT22;8530;49.540;8.576;2023-07-28T11:16:25;28.30;67.70
16827;DHT22;8530;49.540;8.576;2023-07-28T11:18:55;28.20;66.80
16827;DHT22;8530;49.540;8.576;2023-07-28T11:21:23;28.20;66.00
16827;DHT22;8530;49.540;8.576;2023-07-28T11:23:51;28.10;65.40
16827;DHT22;8530;49.540;8.576;2023-07-28T11:26:19;28.10;65.10
16827;DHT22;8530;49.540;8.576;2023-07-28T11:28:47;28.10;64.70
16827;DHT22;8530;49.540;8.576;2023-07-28T11:31:14;28.30;64.40
16827;DHT22;8530;49.540;8.576;2023-07-28T11:33:41;28.30;63.80
16827;DHT22;8530;49.540;8.576;2023-07-28T11:36:08;28.40;63.40
16827;DHT22;8530;49.540;8.576;2023-07-28T11:38:36;28.40;62.80
16827;DHT22;8530;49.540;8.576;2023-07-28T11:41:04;28.30;62.20
16827;DHT22;8530;49.540;8.576;2023-07-28T11:43:30;28.30;62.00
16827;DHT22;8530;49.540;8.576;2023-07-28T11:45:58;28.40;61.80
16827;DHT22;8530;49.540;8.576;2023-07-28T11:48:30;28.40;61.60
16827;DHT22;8530;49.540;8.576;2023-07-28T11:50:57;28.30;61.20
16827;DHT22;8530;49.540;8.576;2023-07-28T11:53:25;28.10;60.90
16827;DHT22;8530;49.540;8.576;2023-07-28T11:55:54;28.00;60.70
16827;DHT22;8530;49.540;8.576;2023-07-28T11:58:21;27.80;60.70
16827;DHT22;8530;49.540;8.576;2023-07-28T12:00:50;27.70;60.70
16827;DHT22;8530;49.540;8.576;2023-07-28T12:03:16;27.50;60.80
16827;DHT22;8530;49.540;8.576;2023-07-28T12:06:03;27.30;60.70
16827;DHT22;8530;49.540;8.576;2023-07-28T12:08:34;27.10;60.90
16827;DHT22;8530;49.540;8.576;2023-07-28T12:11:03;26.80;61.10
16827;DHT22;8530;49.540;8.576;2023-07-28T12:13:30;26.40;61.50
16827;DHT22;8530;49.540;8.576;2023-07-28T12:15:57;26.20;62.30
16827;DHT22;8530;49.540;8.576;2023-07-28T12:18:29;26.10;63.10
16827;DHT22;8530;49.540;8.576;2023-07-28T12:20:56;26.10;63.90
16827;DHT22;8530;49.540;8.576;2023-07-28T12:23:23;26.10;64.40
16827;DHT22;8530;49.540;8.576;2023-07-28T12:25:50;26.10;64.70
16827;DHT22;8530;49.540;8.576;2023-07-28T12:28:20;26.10;64.80
16827;DHT22;8530;49.540;8.576;2023-07-28T12:30:47;26.20;65.10
16827;DHT22;8530;49.540;8.576;2023-07-28T12:33:17;26.10;65.10
16827;DHT22;8530;49.540;8.576;2023-07-28T12:35:44;25.90;65.20
16827;DHT22;8530;49.540;8.576;2023-07-28T12:38:11;25.80;65.50
16827;DHT22;8530;49.540;8.576;2023-07-28T12:40:37;25.60;65.80
16827;DHT22;8530;49.540;8.576;2023-07-28T12:43:04;25.50;66.40
16827;DHT22;8530;49.540;8.576;2023-07-28T12:45:32;25.40;67.00
16827;DHT22;8530;49.540;8.576;2023-07-28T12:47:59;25.30;67.70
16827;DHT22;8530;49.540;8.576;2023-07-28T12:50:26;25.20;68.30
16827;DHT22;8530;49.540;8.576;2023-07-28T12:52:53;25.20;68.90
16827;DHT22;8530;49.540;8.576;2023-07-28T12:55:20;25.20;69.50
16827;DHT22;8530;49.540;8.576;2023-07-28T12:57:47;25.20;70.00
16827;DHT22;8530;49.540;8.576;2023-07-28T13:00:15;25.20;70.40
16827;DHT22;8530;49.540;8.576;2023-07-28T13:02:44;25.20;70.70
16827;DHT22;8530;49.540;8.576;2023-07-28T13:05:11;25.20;71.10
16827;DHT22;8530;49.540;8.576;2023-07-28T13:07:39;25.20;71.30
16827;DHT22;8530;49.540;8.576;2023-07-28T13:10:08;25.20;71.60
16827;DHT22;8530;49.540;8.576;2023-07-28T13:12:36;25.20;71.70
16827;DHT22;8530;49.540;8.576;2023-07-28T13:15:04;25.20;72.00
16827;DHT22;8530;49.540;8.576;2023-07-28T13:17:31;25.10;72.20
16827;DHT22;8530;49.540;8.576;2023-07-28T13:19:59;25.00;72.40
16827;DHT22;8530;49.540;8.576;2023-07-28T13:22:26;24.90;72.70
16827;DHT22;8530;49.540;8.576;2023-07-28T13:24:52;24.80;73.00
16827;DHT22;8530;49.540;8.576;2023-07-28T13:27:19;24.80;74.10
16827;DHT22;8530;49.540;8.576;2023-07-28T13:29:46;24.70;74.00
16827;DHT22;8530;49.540;8.576;2023-07-28T13:32:17;24.60;74.60
16827;DHT22;8530;49.540;8.576;2023-07-28T13:34:44;24.60;75.50
16827;DHT22;8530;49.540;8.576;2023-07-28T13:37:12;24.50;76.20
16827;DHT22;8530;49.540;8.576;2023-07-28T13:39:39;24.40;77.20
16827;DHT22;8530;49.540;8.576;2023-07-28T13:42:06;24.40;78.10
16827;DHT22;8530;49.540;8.576;2023-07-28T13:44:32;24.30;79.00
16827;DHT22;8530;49.540;8.576;2023-07-28T13:46:59;24.20;80.10
16827;DHT22;8530;49.540;8.576;2023-07-28T13:49:26;24.10;81.20
16827;DHT22;8530;49.540;8.576;2023-07-28T13:51:53;24.00;82.30
16827;DHT22;8530;49.540;8.576;2023-07-28T13:54:21;23.80;83.40
16827;DHT22;8530;49.540;8.576;2023-07-28T13:56:47;23.70;84.60
16827;DHT22;8530;49.540;8.576;2023-07-28T13:59:14;23.70;85.90
16827;DHT22;8530;49.540;8.576;2023-07-28T14:01:41;23.60;86.90
16827;DHT22;8530;49.540;8.576;2023-07-28T14:04:08;23.50;87.90
16827;DHT22;8530;49.540;8.576;2023-07-28T14:06:34;23.40;89.00
16827;DHT22;8530;49.540;8.576;2023-07-28T14:09:01;23.30;90.10
16827;DHT22;8530;49.540;8.576;2023-07-28T14:11:29;23.20;90.70
16827;DHT22;8530;49.540;8.576;2023-07-28T14:13:56;23.10;91.20
16827;DHT22;8530;49.540;8.576;2023-07-28T14:16:22;23.00;91.70
16827;DHT22;8530;49.540;8.576;2023-07-28T14:18:49;22.90;92.20
16827;DHT22;8530;49.540;8.576;2023-07-28T14:21:16;22.70;92.80
16827;DHT22;8530;49.540;8.576;2023-07-28T14:23:43;22.70;93.50
16827;DHT22;8530;49.540;8.576;2023-07-28T14:26:09;22.60;94.00
16827;DHT22;8530;49.540;8.576;2023-07-28T14:28:37;22.50;94.40
16827;DHT22;8530;49.540;8.576;2023-07-28T14:31:04;22.40;94.90
16827;DHT22;8530;49.540;8.576;2023-07-28T14:33:31;22.30;95.40
16827;DHT22;8530;49.540;8.576;2023-07-28T14:35:57;22.20;95.90
16827;DHT22;8530;49.540;8.576;2023-07-28T14:38:24;22.20;96.40
16827;DHT22;8530;49.540;8.576;2023-07-28T14:40:51;22.20;96.80
16827;DHT22;8530;49.540;8.576;2023-07-28T14:43:17;22.10;97.20
16827;DHT22;8530;49.540;8.576;2023-07-28T14:45:46;22.00;97.50
16827;DHT22;8530;49.540;8.576;2023-07-28T14:48:15;22.00;97.90
16827;DHT22;8530;49.540;8.576;2023-07-28T14:50:42;22.00;98.10
16827;DHT22;8530;49.540;8.576;2023-07-28T14:53:30;21.90;98.40
16827;DHT22;8530;49.540;8.576;2023-07-28T14:55:57;21.90;98.90
16827;DHT22;8530;49.540;8.576;2023-07-28T14:58:24;21.80;98.90
16827;DHT22;8530;49.540;8.576;2023-07-28T15:00:52;21.80;99.20
16827;DHT22;8530;49.540;8.576;2023-07-28T15:03:19;21.90;99.50
16827;DHT22;8530;49.540;8.576;2023-07-28T15:05:46;21.90;99.70
16827;DHT22;8530;49.540;8.576;2023-07-28T15:08:14;22.00;99.80
16827;DHT22;8530;49.540;8.576;2023-07-28T15:10:41;22.00;99.90
16827;DHT22;8530;49.540;8.576;2023-07-28T15:13:08;22.10;99.90
16827;DHT22;8530;49.540;8.576;2023-07-28T15:15:34;22.10;99.90
16827;DHT22;8530;49.540;8.576;2023-07-28T15:18:03;22.10;99.90
16827;DHT22;8530;49.540;8.576;2023-07-28T15:20:29;22.10;99.90
16827;DHT22;8530;49.540;8.576;2023-07-28T15:22:56;22.10;99.90
16827;DHT22;8530;49.540;8.576;2023-07-28T15:25:24;22.20;99.90
16827;DHT22;8530;49.540;8.576;2023-07-28T15:27:50;22.20;99.90
16827;DHT22;8530;49.540;8.576;2023-07-28T15:30:17;22.30;99.90
16827;DHT22;8530;49.540;8.576;2023-07-28T15:32:44;22.30;99.90
16827;DHT22;8530;49.540;8.576;2023-07-28T15:35:12;22.30;99.90
16827;DHT22;8530;49.540;8.576;2023-07-28T15:37:39;22.40;99.90
16827;DHT22;8530;49.540;8.576;2023-07-28T15:40:06;22.40;99.90
16827;DHT22;8530;49.540;8.576;2023-07-28T15:42:33;22.50;99.90
16827;DHT22;8530;49.540;8.576;2023-07-28T15:45:00;22.60;99.90
16827;DHT22;8530;49.540;8.576;2023-07-28T15:47:27;22.60;99.90
16827;DHT22;8530;49.540;8.576;2023-07-28T15:49:58;22.70;99.90
16827;DHT22;8530;49.540;8.576;2023-07-28T15:52:26;22.70;99.90